Main page
METAR-TAF:

METAR-TAF

Airports :

Sabadell Airport

Sabadell, Spain

latitude: 41-31N, longitude: 002-06E, elevation: 250 m

Current weather observation

The report was made 39 minutes ago, at 01:00 UTC
Wind 4 kt from the West
Temperature 21°C
Humidity 64%
Pressure 1017 hPa
Visibility 10 km or more

METAR: LELL 220100Z AUTO 28004KT 9999 NCD 21/14 Q1017

Time: 03:39 (01:39 UTC)

Forecast

The report was made 11 hours and 39 minutes ago, at 14:00 UTC
Forecast valid from 21 at 15 UTC to 22 at 15 UTC
Wind 9 kt from the South/Southeast
Visibility 10 km or more
Few clouds at a height of 3000 ft
Becoming
from 21 at 18 UTC to 21 at 20 UTC
Wind 3 kt from variable directions
Becoming
from 22 at 08 UTC to 22 at 10 UTC
Wind 10 kt from the East/Southeast

TAF: LELL 211400Z 2115/2215 15009KT 9999 FEW030 TX34/2212Z TN20/2205Z BECMG 2118/2120 VRB03KT BECMG 2208/2210 12010KT

Weather observations and forecasts of more than 4000 airports (METAR and TAF reports).

The available stations are represented by yellow and red dots on the map.

Hover mouse over dot to see the name of the station.

Then click to see weather observations and forecasts.

To change the map : click on the green buttons with a black cross to zoom in, on the green button with a dash to zoom out, or on the green arrows for adjacent maps.


METAR-TAF: